Latest Weather Observations for Coolangatta

IDQ60801

Issued at 4:12 pm EST Thursday 13 August 2020 (issued every 10 minutes, with the page automatically refreshed every 10 minutes)

About weather observations | Map of weather stations | Latest weather observations for QLD | Other Formats
Station Details ID: 040717 Name: COOLANGATTA Lat: -28.17 Lon: 153.51 Height: 4.0 m
Data from the previous 72 hours. | See also: Recent months at Coolangatta

Observations at Coolangatta are collected in the Queensland time zone, which does not include daylight savings during the summer period. Therefore 'Rain since 9am' totals and other values are based on the Queensland time zone.

Date/Time
EST
Temp
°C
App
Temp
°C
Dew
Point
°C
Rel
Hum
%
Delta-T
°C
Wind Press
QNH
hPa
Press
MSL
hPa
Rain since
9am
mm
Dir  Spd
km/h
Gust
km/h
Spd
kts
Gust
kts
13/04:00pm 22.1 19.2 16.1 69 3.6 N 26 33 14 18 1012.6 1012.6 0.0
13/03:30pm 22.8 19.8 14.9 61 4.7 N 24 32 13 17 1012.6 1012.6 0.0
13/03:00pm 23.0 20.2 15.3 62 4.6 N 24 32 13 17 1012.7 1012.7 0.0
13/02:30pm 22.9 19.0 14.5 59 5.0 N 28 37 15 20 1012.5 1012.5 0.0
13/02:00pm 22.5 18.2 15.4 64 4.2 N 32 35 17 19 1012.6 1012.6 0.0
13/01:30pm 22.2 18.2 15.1 64 4.2 NNE 30 39 16 21 1012.8 1012.8 0.0
13/01:00pm 24.3 20.6 13.8 52 6.2 N 26 32 14 17 1013.2 1013.2 0.0
13/12:30pm 24.1 20.2 13.3 51 6.3 N 26 35 14 19 1013.6 1013.6 0.0
13/12:00pm 24.6 21.5 12.2 46 7.1 NNW 20 30 11 16 1014.1 1014.1 0.0
13/11:30am 24.4 21.4 12.0 46 7.1 NW 19 30 10 16 1014.5 1014.5 0.0
13/11:00am 23.4 20.2 11.8 48 6.5 NW 20 28 11 15 1015.1 1015.1 0.0
13/10:30am 23.0 19.9 11.7 49 6.4 NNW 19 26 10 14 1015.5 1015.5 0.0
13/10:00am 22.1 17.1 12.1 53 5.6 NNW 30 39 16 21 1015.8 1015.8 0.0
13/09:30am 21.9 18.4 12.2 54 5.5 NNW 22 37 12 20 1016.2 1016.2 0.0
13/09:00am 20.8 17.1 12.8 60 4.5 NNW 24 33 13 18 1016.4 1016.4 -
13/08:30am 19.6 17.0 13.1 66 3.7 NNW 19 24 10 13 1016.5 1016.5 -
13/08:00am 17.6 15.3 11.9 69 3.1 NNW 15 22 8 12 1016.3 1016.3 -
13/07:30am 17.9 18.3 12.6 71 2.9 NW 2 7 1 4 1016.0 1016.0 -
13/07:00am 16.4 15.1 12.6 78 2.1 NW 11 20 6 11 1016.0 1016.0 -
13/06:30am 15.6 14.3 12.5 82 1.7 NW 11 17 6 9 1015.8 1015.8 -
13/06:00am 15.4 14.6 12.9 85 1.4 N 9 13 5 7 1015.7 1015.7 -
13/05:30am 15.5 13.9 12.8 84 1.5 NNW 13 19 7 10 1015.4 1015.4 -
13/05:00am 16.1 13.7 12.8 81 1.8 NNW 17 24 9 13 1015.4 1015.4 -
13/04:30am 16.3 14.3 12.8 80 1.9 NNW 15 22 8 12 1015.1 1015.1 -
13/04:00am 16.4 14.5 13.1 81 1.8 NW 15 20 8 11 1015.2 1015.2 -
13/03:30am 16.3 14.5 13.4 83 1.6 NNW 15 20 8 11 1015.5 1015.5 -
13/03:00am 16.4 14.9 14.1 86 1.3 NNW 15 20 8 11 1015.5 1015.5 0.0
13/02:30am 16.4 15.7 14.4 88 1.1 NNW 11 15 6 8 1015.6 1015.6 -
13/02:00am 16.8 15.8 14.6 87 1.3 NNW 13 17 7 9 1015.8 1015.8 -
13/01:30am 16.4 16.5 13.9 85 1.4 NNW 6 11 3 6 1016.2 1016.2 -
13/01:00am 16.4 15.9 13.9 85 1.4 NW 9 11 5 6 1016.3 1016.3 -
13/12:30am 16.7 15.6 14.2 85 1.4 NW 13 17 7 9 1016.5 1016.5 -
13/12:00am 16.4 15.6 13.9 85 1.4 NW 11 15 6 8 1016.4 1016.4 -
 
Date/Time
EST
Temp
°C
App
Temp
°C
Dew
Point
°C
Rel
Hum
%
Delta-T
°C
Wind Press
QNH
hPa
Press
MSL
hPa
Rain since
9am
mm
Dir  Spd
km/h
Gust
km/h
Spd
kts
Gust
kts
12/11:30pm 16.2 15.4 13.9 86 1.3 NW 11 13 6 7 1016.8 1016.8 -
12/11:00pm 16.0 15.8 13.7 86 1.3 NW 7 11 4 6 1017.0 1017.0 -
12/10:30pm 15.8 14.9 13.6 87 1.2 WNW 11 15 6 8 1017.2 1017.2 -
12/10:00pm 15.1 15.7 13.1 88 1.1 NW 2 11 1 6 1017.2 1017.2 -
12/09:30pm 15.8 16.0 12.9 83 1.6 NW 4 6 2 3 1017.0 1017.0 -
12/09:00pm 16.0 15.3 13.3 84 1.5 WNW 9 11 5 6 1017.6 1017.6 0.0
12/08:30pm 16.7 16.1 13.6 82 1.7 WNW 9 15 5 8 1017.4 1017.4 -
12/08:00pm 17.1 16.2 13.6 80 2.0 WNW 11 15 6 8 1017.3 1017.3 -
12/07:30pm 18.7 16.2 14.2 75 2.6 NNW 20 30 11 16 1017.2 1017.2 -
12/07:00pm 18.5 16.5 13.8 74 2.7 NNW 17 20 9 11 1016.8 1016.8 -
12/06:30pm 18.9 15.3 14.2 74 2.7 N 26 35 14 19 1015.7 1015.7 -
12/06:00pm 18.9 15.8 14.4 75 2.6 N 24 32 13 17 1015.9 1015.9 -
12/05:30pm 18.9 15.6 14.0 73 2.8 N 24 30 13 16 1015.9 1015.9 -
12/05:00pm 19.1 15.3 13.5 70 3.2 N 26 33 14 18 1015.7 1015.7 -
12/04:30pm 19.8 16.0 13.5 67 3.6 N 26 32 14 17 1015.8 1015.8 -
12/04:00pm 20.2 16.7 13.4 65 3.9 N 24 32 13 17 1015.6 1015.6 -
12/03:30pm 20.5 17.0 13.5 64 4.0 N 24 28 13 15 1015.6 1015.6 -
12/03:00pm 20.5 16.7 13.7 65 3.9 N 26 32 14 17 1015.8 1015.8 -
12/02:30pm 20.5 16.6 14.4 68 3.6 N 28 32 15 17 1016.0 1016.0 -
12/02:00pm 20.8 17.3 13.5 63 4.2 N 24 32 13 17 1016.3 1016.3 -
12/01:30pm 20.7 17.1 12.9 61 4.4 NNE 24 30 13 16 1016.6 1016.6 -
12/01:00pm 20.7 17.8 13.9 65 3.9 NNE 22 30 12 16 1017.1 1017.1 -
12/12:30pm 20.3 17.2 13.5 65 3.9 NNE 22 28 12 15 1017.6 1017.6 -
12/12:00pm 20.0 - 13.0 64 4.0 - - - - - 1018.5 1018.5 -
12/10:30am 19.6 17.4 13.3 67 3.6 N 17 20 9 11 1019.9 1019.9 0.0
12/10:00am 19.4 16.7 12.9 66 3.7 N 19 24 10 13 1020.4 1020.4 0.0
12/09:30am 18.2 15.2 12.6 70 3.1 N 20 22 11 12 1020.5 1020.5 0.0
12/09:00am 19.0 19.8 12.5 66 3.6 CALM 0 7 0 4 1020.6 1020.6 0.0
12/08:30am 16.3 17.4 13.4 83 1.6 CALM 0 0 0 0 1020.4 1020.4 0.0
12/08:00am 14.7 15.2 12.9 89 1.0 SSW 2 7 1 4 1020.4 1020.4 0.0
12/07:30am 12.8 12.6 11.9 94 0.5 SSW 4 9 2 5 1020.0 1020.0 0.0
12/07:00am 11.3 11.5 10.4 94 0.5 CALM 0 0 0 0 1019.6 1019.6 0.0
12/06:30am 11.3 11.1 10.4 94 0.5 SSW 2 7 1 4 1019.3 1019.3 0.0
12/06:00am 11.7 11.2 10.8 94 0.5 SSW 4 7 2 4 1018.9 1018.9 0.0
12/05:30am 11.8 11.2 10.5 92 0.7 SSW 4 7 2 4 1018.4 1018.4 0.0
12/05:00am 11.9 11.0 10.8 93 0.6 SW 6 7 3 4 1018.4 1018.4 0.0
12/04:30am 11.6 11.4 10.5 93 0.6 SSW 2 6 1 3 1018.1 1018.1 0.0
12/04:00am 11.9 11.4 10.8 93 0.6 SSW 4 6 2 3 1018.3 1018.3 0.0
12/03:30am 11.8 12.0 10.5 92 0.7 CALM 0 0 0 0 1018.7 1018.7 0.0
12/03:00am 12.1 11.3 11.2 94 0.5 SSW 6 7 3 4 1018.6 1018.6 0.0
12/02:30am 11.3 11.3 9.9 91 0.7 CALM 0 0 0 0 1018.7 1018.7 0.0
12/02:00am 11.7 10.6 9.8 88 1.0 SSW 6 7 3 4 1018.4 1018.4 0.0
12/01:30am 12.5 11.4 9.9 84 1.3 SW 6 7 3 4 1018.9 1018.9 0.0
12/01:00am 13.9 12.3 11.4 85 1.3 WSW 11 13 6 7 1018.9 1018.9 0.0
12/12:30am 12.7 11.5 10.2 85 1.3 SW 7 9 4 5 1018.5 1018.5 0.0
12/12:00am 13.8 13.1 11.5 86 1.2 SW 6 7 3 4 1018.7 1018.7 0.0
 
Date/Time
EST
Temp
°C
App
Temp
°C
Dew
Point
°C
Rel
Hum
%
Delta-T
°C
Wind Press
QNH
hPa
Press
MSL
hPa
Rain since
9am
mm
Dir  Spd
km/h
Gust
km/h
Spd
kts
Gust
kts
11/11:30pm 14.1 13.3 11.6 85 1.3 SW 7 7 4 4 1018.8 1018.8 0.0
11/11:00pm 14.5 13.8 11.3 81 1.7 SW 6 7 3 4 1019.0 1019.0 0.0
11/10:30pm 14.5 13.4 11.8 84 1.5 SW 9 11 5 6 1019.1 1019.1 0.0
11/10:00pm 14.8 13.5 11.4 80 1.8 SW 9 11 5 6 1019.1 1019.1 0.0
11/09:30pm 15.5 13.8 11.3 76 2.3 SW 11 17 6 9 1019.1 1019.1 0.0
11/09:00pm 15.1 13.7 10.9 76 2.2 SSW 9 13 5 7 1019.0 1019.0 0.0
11/08:30pm 15.4 13.6 11.0 75 2.3 SSW 11 15 6 8 1019.1 1019.1 0.0
11/08:00pm 15.3 13.5 10.9 75 2.3 SSW 11 17 6 9 1018.9 1018.9 0.0
11/07:30pm 15.7 13.5 10.9 73 2.6 S 13 20 7 11 1018.9 1018.9 0.0
11/07:00pm 15.6 13.8 10.8 73 2.5 S 11 15 6 8 1018.5 1018.5 0.0
11/06:30pm 15.5 13.3 10.9 74 2.4 SSE 13 15 7 8 1018.3 1018.3 0.0
11/06:00pm 16.2 14.0 10.7 70 2.9 S 13 17 7 9 1018.0 1018.0 0.0
11/05:30pm 16.7 14.0 10.5 67 3.3 SSE 15 19 8 10 1017.6 1017.6 0.0
11/05:00pm 17.7 14.0 10.3 62 3.9 SSE 20 32 11 17 1017.2 1017.2 0.0
11/04:30pm 19.0 16.0 10.6 58 4.5 S 17 24 9 13 1016.9 1016.9 0.0
11/04:00pm 18.8 15.3 10.9 60 4.3 SSE 20 30 11 16 1016.7 1016.7 0.0
11/03:30pm 20.6 17.5 10.4 52 5.5 S 17 24 9 13 1016.2 1016.2 0.0
11/03:00pm 20.8 17.6 10.0 50 5.8 S 17 24 9 13 1016.3 1016.3 0.0
11/02:30pm 20.9 17.5 10.4 51 5.7 S 19 28 10 15 1016.5 1016.5 0.0
11/02:00pm 21.3 18.3 10.8 51 5.7 S 17 26 9 14 1016.7 1016.7 0.0
11/01:30pm 21.0 17.5 10.8 52 5.6 S 20 30 11 16 1016.7 1016.7 0.0
11/01:00pm 20.5 16.2 9.4 49 5.9 S 22 35 12 19 1016.7 1016.7 0.0
11/12:30pm 20.7 16.4 9.3 48 6.1 S 22 35 12 19 1017.0 1017.0 0.0
11/12:00pm 21.1 16.2 10.0 49 6.0 SSE 26 35 14 19 1017.3 1017.3 0.0
11/11:30am 20.4 14.9 9.3 49 5.9 S 28 39 15 21 1017.8 1017.8 0.0
11/11:00am 19.8 15.1 9.4 51 5.5 SSW 24 35 13 19 1018.1 1018.1 0.0
11/10:30am 19.1 13.9 8.7 51 5.4 S 26 43 14 23 1018.1 1018.1 0.0
11/10:00am 19.1 13.9 9.0 52 5.3 S 26 39 14 21 1018.0 1018.0 0.0
11/09:30am 18.7 13.1 8.7 52 5.2 SSW 28 41 15 22 1018.1 1018.1 0.0
11/09:00am 18.3 13.1 8.8 54 4.9 SSW 26 37 14 20 1017.9 1017.9 0.0
11/08:30am 17.6 12.7 8.5 55 4.7 SSW 24 37 13 20 1017.6 1017.6 0.0
11/08:00am 17.0 12.0 8.2 56 4.5 SSW 24 37 13 20 1017.4 1017.4 0.0
11/07:30am 16.3 11.7 8.0 58 4.2 SSW 22 37 12 20 1017.1 1017.1 0.0
11/07:00am 15.5 11.2 7.8 60 3.8 SSW 20 30 11 16 1016.9 1016.9 0.0
11/06:30am 15.2 12.2 7.7 61 3.7 SSW 13 22 7 12 1017.0 1017.0 0.0
11/06:00am 14.7 12.4 7.5 62 3.5 SW 9 15 5 8 1016.4 1016.4 0.0
11/05:30am 14.8 11.7 7.4 61 3.6 SSW 13 20 7 11 1015.8 1015.8 0.0
11/05:00am 14.8 11.3 7.4 61 3.6 SSW 15 20 8 11 1015.7 1015.7 0.0
11/04:30am 14.1 11.7 6.9 62 3.5 SW 9 15 5 8 1015.3 1015.3 0.0
11/04:00am 14.7 11.8 6.5 58 4.0 SSW 11 17 6 9 1015.1 1015.1 0.0
11/03:30am 15.0 11.7 6.6 57 4.1 SSW 13 17 7 9 1014.9 1014.9 0.0
11/03:00am 15.5 11.8 6.2 54 4.5 SW 15 22 8 12 1014.5 1014.5 0.0
11/02:30am 15.5 12.2 6.2 54 4.5 SW 13 20 7 11 1014.3 1014.3 0.0
11/02:00am 15.5 12.1 6.0 53 4.6 SSW 13 24 7 13 1014.1 1014.1 0.0
11/01:30am 15.5 11.3 5.7 52 4.7 SSW 17 26 9 14 1014.1 1014.1 0.0
11/01:00am 15.5 10.7 5.7 52 4.7 SSW 20 30 11 16 1014.3 1014.3 0.0
11/12:30am 15.6 11.0 5.8 52 4.7 SSW 19 32 10 17 1014.3 1014.3 0.0
11/12:00am 15.3 11.3 6.6 56 4.2 SSW 17 26 9 14 1014.5 1014.5 0.0
 
Date/Time
EST
Temp
°C
App
Temp
°C
Dew
Point
°C
Rel
Hum
%
Delta-T
°C
Wind Press
QNH
hPa
Press
MSL
hPa
Rain since
9am
mm
Dir  Spd
km/h
Gust
km/h
Spd
kts
Gust
kts
10/11:30pm 13.6 11.5 6.7 63 3.3 SSW 7 13 4 7 1014.7 1014.7 0.0
10/11:00pm 14.4 11.5 6.7 60 3.7 SW 11 15 6 8 1014.5 1014.5 0.0
10/10:30pm 14.9 12.4 6.5 57 4.1 SW 9 11 5 6 1014.6 1014.6 0.0
10/10:00pm 16.2 12.8 6.1 51 4.9 SSW 13 20 7 11 1014.2 1014.2 0.0
10/09:30pm 16.5 12.3 5.8 49 5.2 SSW 17 24 9 13 1013.9 1013.9 0.0
10/09:00pm 16.5 12.3 5.8 49 5.2 SSW 17 28 9 15 1014.0 1014.0 0.0
10/08:30pm 16.5 12.0 6.3 51 5.0 S 19 30 10 16 1013.6 1013.6 0.0
10/08:00pm 16.5 12.5 6.6 52 4.9 SSW 17 26 9 14 1013.5 1013.5 0.0
10/07:30pm 16.1 12.9 6.8 54 4.6 SSW 13 19 7 10 1013.5 1013.5 0.0
10/07:00pm 15.8 13.7 6.8 55 4.4 SW 7 13 4 7 1013.1 1013.1 0.0
10/06:30pm 16.9 14.9 6.1 49 5.3 SSW 6 11 3 6 1012.6 1012.6 0.0
10/06:00pm 17.3 14.7 5.9 47 5.6 SSW 9 13 5 7 1011.9 1011.9 0.0
10/05:30pm 17.5 14.8 5.8 46 5.7 SW 9 15 5 8 1011.2 1011.2 0.0
10/05:00pm 17.9 15.2 5.5 44 6.0 WSW 9 13 5 7 1011.0 1011.0 0.0
10/04:30pm 18.1 15.3 5.0 42 6.3 WSW 9 15 5 8 1010.4 1010.4 0.0

Other formats

Comma delimited format used in spreadsheet applications
http://www.bom.gov.au/fwo/IDQ60801/IDQ60801.94592.axf

JavaScript Object Notation format (JSON) in row-major order
http://www.bom.gov.au/fwo/IDQ60801/IDQ60801.94592.json

Data quality

Most of these data are generated automatically and are frequently updated. Quality checks on data are not normally performed. It is possible for incorrect values to appear. Refer to information at About Latest Weather Observations and please check the disclaimer before using these data.